• Join FlightAware (Why Join?)
  • Login
  • US Flag 
08:24PM EST


 

Airport Tracker/Info


-or-


 

Live Flight TrackerFlight Track Log ✈ N3746H ✈ 17-Apr-2013 ✈ KLAS - KJFK

Flight Track Log - Related Links

Times and Time Zones

All times are in EDT time to prevent confusion due to time zone crossing. See the N3746H flight status page for this flight to view local times or setup timezone preferences in your user account.

Time Position Orientation Groundspeed Altitude Reporting Facility
EDT Latitude Longitude Course Direction KTS MPH feet Rate Location/Type
02:23AM 36.1108 -115.1489 83° East 163 188 3,300  Level Los Angeles Center
02:23AM 36.1261 -115.1303 45° Northeast 184 212 4,200 1,800 Climbing Los Angeles Center
02:24AM 36.1333 -115.0750 81° East 243 280 5,500 2,640 Climbing Los Angeles Center
02:24AM 36.1389 -115.0303 81° East 262 302 7,400 3,120 Climbing Los Angeles Center
02:25AM 36.1431 -114.9842 84° East 264 304 8,700 3,000 Climbing Los Angeles Center
02:25AM 36.1481 -114.9339 83° East 286 329 10,500 1,920 Climbing Los Angeles Center
02:26AM 35.8280 -114.9428 84° East  Level FlightAware Approximate
02:26AM 36.1411 -114.8817 99° East 301 346 11,100  Level Los Angeles Center
02:26AM 36.1181 -114.8161 114° Southeast 348 400 12,800 3,300 Climbing Los Angeles Center
02:27AM 35.8424 -114.7762 83° East  Level FlightAware Approximate
02:27AM 36.0928 -114.7464 114° Southeast 357 411 14,500  Level Los Angeles Center
02:28AM 35.8590 -114.6098 83° East  Level FlightAware Approximate
02:28AM 36.0533 -114.6253 112° Southeast 375 432 16,800  Level Los Angeles Center
02:29AM 36.0108 -114.4950 112° Southeast 403 464 18,500 1,860 Climbing Los Angeles Center
02:30AM 35.9883 -114.3514 101° East 422 486 20,700 2,040 Climbing Los Angeles Center
02:31AM 35.9669 -114.2025 100° East 437 503 22,700 1,980 Climbing Los Angeles Center
02:32AM 35.9397 -114.0172 100° East 456 525 24,700 1,740 Climbing Los Angeles Center
02:33AM 35.9161 -113.8581 100° East 468 539 26,300 1,320 Climbing Los Angeles Center
02:34AM 35.8897 -113.6931 101° East 485 558 27,400 1,260 Climbing Los Angeles Center
02:35AM 35.8667 -113.5397 100° East 502 578 28,900 1,260 Climbing Los Angeles Center
02:36AM 35.8383 -113.3678 101° East 509 586 30,000 1,140 Climbing Los Angeles Center
02:37AM 35.8111 -113.1939 101° East 515 593 31,200 1,140 Climbing Los Angeles Center
02:38AM 35.7828 -113.0172 101° East 521 600 32,400 1,080 Climbing Los Angeles Center
02:39AM 35.7897 -112.8400 87° East 517 595 33,500 1,080 Climbing Los Angeles Center
02:40AM 35.8122 -112.6650 81° East 516 594 34,600 1,320 Climbing Los Angeles Center
02:41AM 35.8319 -112.4942 82° East 505 581 36,200 840 Climbing Los Angeles Center
02:42AM 35.8911 -112.3406 65° Northeast 496 571 36,400 300 Climbing Los Angeles Center
02:43AM 35.9644 -112.1914 59° Northeast 505 581 36,900 240 Climbing Los Angeles Center
02:44AM 36.0367 -112.0428 59° Northeast 507 583 37,000  Climbing Los Angeles Center
02:45AM 36.1150 -111.8836 59° Northeast 504 580 37,000  Level Los Angeles Center
02:46AM 36.1867 -111.7325 60° Northeast 510 587 37,000  Level Los Angeles Center
02:47AM 36.2583 -111.5786 60° Northeast 518 596 37,000  Level Los Angeles Center
02:48AM 36.3325 -111.4256 59° Northeast 519 597 37,000  Level Los Angeles Center
02:49AM 36.4203 -111.2422 59° Northeast 518 596 37,000  Level Los Angeles Center
02:50AM 36.4936 -111.0892 59° Northeast 518 596 37,000  Level Los Angeles Center
02:51AM 36.5661 -110.9367 59° Northeast 515 593 37,000  Level Los Angeles Center
02:52AM 36.6397 -110.7839 59° Northeast 516 594 37,000  Level Denver Center
02:53AM 36.7069 -110.6347 61° Northeast 504 580 37,000  Level Denver Center
02:54AM 36.7806 -110.4806 59° Northeast 516 594 37,000  Level Denver Center
02:55AM 36.8506 -110.3275 60° Northeast 513 590 37,000  Level Denver Center
02:56AM 36.9231 -110.1717 60° Northeast 520 598 37,000  Level Denver Center
02:57AM 36.9997 -110.0031 60° Northeast 511 588 37,000  Level Denver Center
02:58AM 37.0678 -109.8558 60° Northeast 510 587 37,000  Level Denver Center
02:59AM 37.1347 -109.7056 61° Northeast 513 590 37,000  Level Denver Center
03:00AM 37.2125 -109.5367 60° Northeast 503 579 37,000  Level Denver Center
03:01AM 37.2786 -109.3883 61° Northeast 505 581 37,000  Level Denver Center
03:02AM 37.3444 -109.2414 61° Northeast 504 580 37,000  Level Denver Center
03:03AM 37.4222 -109.0694 60° Northeast 505 581 37,000  Level Denver Center
03:04AM 37.4881 -108.9206 61° Northeast 506 582 37,000  Level Denver Center
03:05AM 37.5536 -108.7703 61° Northeast 509 586 37,000  Level Denver Center
03:06AM 37.6186 -108.6200 61° Northeast 509 586 37,000  Level Denver Center
03:07AM 37.6944 -108.4481 61° Northeast 502 578 37,000  Level Denver Center
03:08AM 37.7600 -108.2994 61° Northeast 504 580 37,000  Level Denver Center
03:09AM 37.8264 -108.1503 61° Northeast 507 583 37,000  Level Denver Center
03:10AM 37.9014 -107.9714 62° Northeast 512 589 37,000  Level Denver Center
03:12AM 37.9678 -107.8200 61° Northeast 514 592 37,000  Level Denver Center
03:13AM 38.0328 -107.6656 62° Northeast 518 596 37,000  Level Denver Center
03:14AM 38.1019 -107.5022 62° Northeast 515 593 37,000  Level Denver Center
03:15AM 38.1661 -107.3511 62° Northeast 510 587 37,000  Level Denver Center
03:16AM 38.2408 -107.1772 61° Northeast 505 581 37,000  Level Denver Center
03:17AM 38.3011 -107.0331 62° Northeast 506 582 37,000  Level Denver Center
03:18AM 38.3669 -106.8756 62° Northeast 505 581 37,000  Level Denver Center
03:19AM 38.4317 -106.7169 62° Northeast 505 581 37,000  Level Denver Center
03:20AM 38.4975 -106.5586 62° Northeast 507 583 37,000  Level Denver Center
03:21AM 38.5611 -106.4017 63° Northeast 501 577 37,000  Level Denver Center
03:22AM 38.6269 -106.2431 62° Northeast 504 580 37,000  Level Denver Center
03:23AM 38.6944 -106.0769 62° Northeast 502 578 37,000  Level Denver Center
03:24AM 38.7572 -105.9172 63° Northeast 498 573 37,000  Level Denver Center
03:25AM 38.8219 -105.7572 63° Northeast 501 577 37,000  Level Denver Center
03:26AM 38.8867 -105.5961 63° Northeast 503 579 37,000  Level Denver Center
03:27AM 38.9503 -105.4358 63° Northeast 502 578 37,000  Level Denver Center
03:28AM 39.0153 -105.2728 63° Northeast 508 585 37,000  Level Denver Center
03:29AM 39.0797 -105.1081 63° Northeast 511 588 37,000  Level Denver Center
03:30AM 39.1461 -104.9417 63° Northeast 518 596 37,000  Level Denver Center
03:31AM 39.2106 -104.7756 63° Northeast 517 595 37,000  Level Denver Center
03:32AM 39.2744 -104.6094 64° Northeast 518 596 37,000  Level Denver Center
03:33AM 39.3386 -104.4439 63° Northeast 517 595 37,000  Level Denver Center
03:34AM 39.4025 -104.2772 64° Northeast 518 596 37,000  Level Denver Center
03:35AM 39.4656 -104.1086 64° Northeast 519 597 37,000  Level Denver Center
03:36AM 39.5300 -103.9411 63° Northeast 518 596 37,000  Level Denver Center
03:37AM 39.5931 -103.7700 64° Northeast 520 598 37,000  Level Denver Center
03:38AM 39.6569 -103.6022 64° Northeast 515 593 37,000  Level Denver Center
03:39AM 39.7197 -103.4308 64° Northeast 521 600 37,000  Level Denver Center
03:40AM 39.7844 -103.2597 64° Northeast 524 603 37,000  Level Denver Center
03:41AM 39.8475 -103.0894 64° Northeast 520 598 37,000  Level Denver Center
03:42AM 39.9094 -102.9183 65° Northeast 519 597 37,000  Level Denver Center
03:43AM 39.9719 -102.7486 64° Northeast 516 594 37,000  Level Denver Center
03:44AM 40.0375 -102.5614 65° Northeast 513 590 37,000  Level Denver Center
03:45AM 40.0975 -102.3994 64° Northeast 517 595 37,000  Level Denver Center
03:46AM 40.1550 -102.2369 65° Northeast 516 594 37,000  Level Denver Center
03:47AM 40.2128 -102.0736 65° Northeast 517 595 37,000  Level Denver Center
03:48AM 40.2803 -101.8811 65° Northeast 521 600 37,000  Level Denver Center
03:49AM 40.3389 -101.7178 65° Northeast 519 597 37,000  Level Denver Center
03:50AM 40.3953 -101.5519 66° East 520 598 37,000  Level Denver Center
03:51AM 40.4625 -101.3594 65° Northeast 521 600 37,000  Level Denver Center
03:52AM 40.5194 -101.1942 66° East 519 597 37,000  Level Denver Center
03:53AM 40.5764 -101.0297 65° Northeast 519 597 37,000  Level Denver Center
03:54AM 40.6414 -100.8378 66° East 520 598 37,000  Level Denver Center
03:55AM 40.6967 -100.6750 66° East 518 596 37,000  Level Denver Center
03:56AM 40.7519 -100.5131 66° East 517 595 37,000  Level Denver Center
03:57AM 40.8156 -100.3214 66° East 514 592 37,000  Level Denver Center
03:58AM 40.8706 -100.1564 66° East 514 592 37,000  Level Denver Center
03:59AM 40.9244 -99.9933 66° East 510 587 37,000  Level Denver Center
04:00AM 40.9850 -99.8103 66° East 511 588 37,000  Level Denver Center
04:01AM 41.0408 -99.6369 67° East 510 587 37,000  Level Denver Center
04:02AM 41.0947 -99.4700 67° East 511 588 37,000  Level Denver Center
04:03AM 41.1531 -99.2906 67° East 508 585 37,000  Level Denver Center
04:04AM 41.2086 -99.1153 67° East 510 587 37,000  Level Denver Center
04:05AM 41.2625 -98.9458 67° East 511 588 37,000  Level Denver Center
04:06AM 41.3206 -98.7589 67° East 510 587 37,000 420 Level Denver Center
04:07AM 41.3769 -98.5811 67° East 512 589 37,900 900 Climbing Denver Center
04:08AM 41.4308 -98.4067 68° East 508 585 38,900 480 Climbing Denver Center
04:09AM 41.4847 -98.2336 67° East 505 581 39,000  Climbing Minneapolis Center
04:10AM 41.5419 -98.0508 67° East 505 581 39,000  Level Minneapolis Center
04:11AM 41.5942 -97.8786 68° East 503 579 39,000  Level Minneapolis Center
04:12AM 41.6469 -97.7047 68° East 503 579 39,000  Level Minneapolis Center
04:13AM 41.6994 -97.5325 68° East 502 578 39,000  Level Minneapolis Center
04:14AM 41.7511 -97.3567 68° East 504 580 39,000  Level Minneapolis Center
04:15AM 41.8033 -97.1814 68° East 506 582 39,000  Level Minneapolis Center
04:16AM 41.8564 -97.0047 68° East 508 585 39,000  Level Minneapolis Center
04:17AM 41.9083 -96.8264 69° East 511 588 39,000  Level Minneapolis Center
04:18AM 41.9594 -96.6478 69° East 511 588 39,000  Level Minneapolis Center
04:19AM 42.0111 -96.4714 68° East 507 583 39,000  Level Minneapolis Center
04:20AM 42.0603 -96.2983 69° East 497 572 39,000  Level Minneapolis Center
04:21AM 42.1097 -96.1242 69° East 497 572 39,000  Level Minneapolis Center
04:22AM 42.1594 -95.9478 69° East 500 575 39,000  Level Minneapolis Center
04:23AM 42.2097 -95.7719 69° East 502 578 39,000  Level Minneapolis Center
04:24AM 42.2592 -95.5950 69° East 501 577 39,000  Level Minneapolis Center
04:25AM 42.3081 -95.4189 69° East 500 575 39,000  Level Minneapolis Center
04:26AM 42.3564 -95.2417 70° East 501 577 39,000  Level Minneapolis Center
04:27AM 42.4031 -95.0675 70° East 496 571 39,000  Level Minneapolis Center
04:28AM 42.4503 -94.8942 70° East 491 565 39,000  Level Minneapolis Center
04:29AM 42.4969 -94.7219 70° East 488 562 39,000  Level Minneapolis Center
04:30AM 42.5411 -94.5567 70° East 489 563 39,000  Level Minneapolis Center
04:31AM 42.5856 -94.3831 71° East 490 564 39,000  Level Minneapolis Center
04:32AM 42.6203 -94.2106 75° East 477 549 39,000  Level Minneapolis Center
04:33AM 42.6389 -94.0369 82° East 469 540 39,000  Level Minneapolis Center
04:34AM 42.6461 -93.9675 82° East 468 539 39,000  Level Minneapolis Center
04:35AM 42.6650 -93.7936 82° East 468 539 39,000  Level Minneapolis Center
04:36AM 42.6839 -93.6175 82° East 474 545 39,000  Level Minneapolis Center
04:37AM 42.7053 -93.4053 82° East 477 549 39,000  Level Minneapolis Center
04:38AM 42.7239 -93.2294 82° East 474 545 39,000  Level Minneapolis Center
04:40AM 42.7614 -92.8447 82° East 470 541 39,000  Level Chicago Center
04:40AM 42.7692 -92.7756 81° East 470 541 39,000  Level Minneapolis Center
04:41AM 42.7864 -92.6000 82° East 471 542 39,000  Level Minneapolis Center
04:42AM 42.8031 -92.4233 83° East 474 545 39,000  Level Minneapolis Center
04:43AM 42.8192 -92.2458 83° East 475 547 39,000  Level Minneapolis Center
04:44AM 42.8358 -92.0683 83° East 475 547 39,000  Level Minneapolis Center
04:45AM 42.8522 -91.8903 83° East 475 547 39,000  Level Minneapolis Center
04:46AM 42.8686 -91.7069 83° East 479 551 39,000  Level Minneapolis Center
04:47AM 42.8850 -91.5211 83° East 481 554 39,000  Level Minneapolis Center
04:48AM 42.8992 -91.3428 84° East 473 544 39,000  Level Minneapolis Center
04:49AM 42.9139 -91.1675 83° East 468 539 39,000  Level Minneapolis Center
04:50AM 42.9278 -90.9942 84° East 464 534 39,000  Level Minneapolis Center
04:51AM 42.9397 -90.8578 83° East 459 528 39,000  Level Chicago Center
04:52AM 42.9539 -90.6869 83° East 457 526 39,000  Level Chicago Center
04:53AM 42.9669 -90.5178 84° East 453 521 39,000  Level Chicago Center
04:54AM 42.9806 -90.3489 84° East 453 521 39,000  Level Chicago Center
04:55AM 42.9928 -90.1772 84° East 458 527 39,000  Level Chicago Center
04:56AM 43.0050 -90.0008 85° East 469 540 39,000  Level Chicago Center
04:57AM 43.0183 -89.8192 84° East 471 542 39,000  Level Chicago Center
04:58AM 43.0300 -89.6414 85° East 472 543 39,000  Level Chicago Center
04:59AM 43.0428 -89.4625 84° East 474 545 39,000  Level Chicago Center
05:00AM 43.0550 -89.2825 85° East 477 549 39,000  Level Chicago Center
05:01AM 43.0661 -89.1025 85° East 477 549 39,000  Level Chicago Center
05:02AM 43.0775 -88.9228 85° East 478 550 39,000  Level Chicago Center
05:03AM 43.0892 -88.7419 85° East 480 552 39,000  Level Chicago Center
05:04AM 43.0994 -88.5622 85° East 479 551 39,000  Level Chicago Center
05:05AM 43.1103 -88.3822 85° East 480 552 39,000  Level Chicago Center
05:06AM 43.1200 -88.2006 86° East 482 555 39,000  Level Chicago Center
05:07AM 43.1242 -88.0206 88° East 478 550 39,000  Level Chicago Center
05:08AM 43.1292 -87.8397 88° East 479 551 39,000  Level Chicago Center
05:09AM 43.1350 -87.6578 87° East 478 550 39,000  Level Chicago Center
05:10AM 43.1406 -87.4744 88° East 482 555 39,000  Level Chicago Center
05:11AM 43.1450 -87.2883 88° East 483 556 39,000  Level Chicago Center
05:12AM 43.1511 -87.1036 87° East 485 558 39,000  Level Chicago Center
05:13AM 43.1536 -86.9194 89° East 486 559 39,000  Level Chicago Center
05:14AM 43.1581 -86.7325 88° East 491 565 39,000  Level Chicago Center
05:15AM 43.1614 -86.5447 89° East 494 568 39,000 -540 Level Chicago Center
05:16AM 43.1653 -86.3556 88° East 494 568 38,000 -960 Descending Chicago Center
05:17AM 43.1686 -86.1683 89° East 490 564 37,100 -540 Descending Chicago Center
05:18AM 43.1678 -85.9781 90° East 487 560 37,000 -60 Descending Chicago Center
05:19AM 43.1500 -85.7897 97° East 487 560 37,000  Level Chicago Center
05:20AM 43.1347 -85.6036 96° East 487 560 37,000  Level Chicago Center
05:21AM 43.1192 -85.4189 97° East 488 562 37,000  Level Chicago Center
05:22AM 43.1033 -85.2356 97° East 486 559 37,000  Level Chicago Center
05:23AM 43.0878 -85.0514 97° East 488 562 37,000 120 Level Chicago Center
05:24AM 43.0606 -84.8700 102° East 486 559 37,300 840 Climbing Chicago Center
05:25AM 43.0250 -84.6994 106° East 471 542 38,800 840 Climbing Chicago Center
05:26AM 42.9903 -84.5272 105° East 471 542 39,000 60 Climbing Chicago Center
05:27AM 42.9558 -84.3556 105° East 470 541 39,000  Level Chicago Center
05:28AM 42.9486 -84.2992 100° East 465 535 39,000  Level Cleveland Center
05:29AM 42.9269 -84.1222 99° East 459 528 39,000  Level Cleveland Center
05:30AM 42.9031 -83.9450 100° East 464 534 39,000  Level Cleveland Center
05:31AM 42.8831 -83.7653 99° East 469 540 39,000  Level Cleveland Center
05:32AM 42.8606 -83.5969 100° East 469 540 39,000  Level Cleveland Center
05:33AM 42.8381 -83.4175 100° East 469 540 39,000  Level Cleveland Center
05:34AM 42.8114 -83.2267 101° East 469 540 39,000  Level Cleveland Center
05:35AM 42.7881 -83.0475 100° East 469 540 39,000  Level Cleveland Center
05:36AM 42.7628 -82.8683 101° East 474 545 39,000  Level Cleveland Center
05:37AM 42.7392 -82.6864 100° East 474 545 39,000  Level Cleveland Center
05:38AM 42.7131 -82.5047 101° East 474 545 39,000  Level Cleveland Center
05:39AM 42.6867 -82.3258 101° East 479 551 39,000  Level Cleveland Center
05:40AM 42.6622 -82.1472 100° East 484 557 39,000 480 Level Cleveland Center
05:41AM 42.6372 -81.9689 101° East 484 557 40,000 480 Climbing Cleveland Center
05:42AM 42.6122 -81.7964 101° East 479 551 40,000  Level Cleveland Center
05:43AM 42.5869 -81.6208 101° East 468 539 40,000  Level Cleveland Center
05:44AM 42.5611 -81.4428 101° East 468 539 40,000  Level Cleveland Center
05:45AM 42.5353 -81.2706 101° East 478 550 40,000  Level Cleveland Center
05:46AM 42.5092 -81.0958 101° East 473 544 40,000  Level Cleveland Center
05:47AM 42.4825 -80.9211 102° East 468 539 40,000  Level Cleveland Center
05:48AM 42.4558 -80.7492 102° East 468 539 40,000  Level Cleveland Center
05:49AM 42.4269 -80.5719 102° East 476 548 40,000  Level Cleveland Center
05:50AM 42.4017 -80.4172 102° East 470 541 40,000  Level Cleveland Center
05:51AM 42.3722 -80.2403 103° East 476 548 40,000  Level Cleveland Center
05:52AM 42.3464 -80.0636 101° East 476 548 40,000  Level Cleveland Center
05:53AM 42.3164 -79.8897 103° East 476 548 40,000  Level Cleveland Center
05:54AM 42.2881 -79.7186 103° East 470 541 40,000  Level Cleveland Center
05:55AM 42.2594 -79.5367 102° East 476 548 40,000  Level Cleveland Center
05:56AM 42.2308 -79.3661 103° East 481 554 40,000  Level Cleveland Center
05:57AM 42.2017 -79.1872 102° East 481 554 40,000  Level Cleveland Center
05:58AM 42.1619 -79.0144 107° East 481 554 40,000  Level Cleveland Center
05:59AM 42.1178 -78.8419 109° East 481 554 40,000  Level Cleveland Center
06:00AM 42.0775 -78.6669 107° East 486 559 40,000  Level Cleveland Center
06:01AM 42.0306 -78.4950 110° East 481 554 40,000  Level Cleveland Center
06:02AM 41.9858 -78.3233 109° East 481 554 40,000  Level Cleveland Center
06:04AM 41.8914 -77.9567 109° East 492 566 40,000  Level New York Center
06:05AM 41.8456 -77.7819 109° East 492 566 40,000  Level New York Center
06:06AM 41.7992 -77.6128 110° East 492 566 40,000  Level New York Center
06:07AM 41.7531 -77.4356 109° East 492 566 40,000 -180 Level New York Center
06:08AM 41.7083 -77.2644 109° East 492 566 39,700 -1,200 Descending New York Center
06:09AM 41.6614 -77.0906 110° East 497 572 37,700 -1,440 Descending New York Center
06:10AM 41.6142 -76.9194 110° East 497 572 36,800 -900 Descending New York Center
06:11AM 41.5669 -76.7433 110° East 497 572 35,900 -1,020 Descending New York Center
06:12AM 41.5158 -76.5558 110° East 492 566 34,800 -1,020 Descending New York Center
06:13AM 41.4719 -76.3858 109° East 492 566 33,900 -960 Descending New York Center
06:14AM 41.4200 -76.2044 111° Southeast 498 573 32,900 -900 Descending New York Center
06:15AM 41.3767 -76.0544 111° Southeast 498 573 32,100 -900 Descending New York Center
06:16AM 41.3275 -75.8931 112° Southeast 486 559 31,100 -1,320 Descending New York Center
06:17AM 41.2806 -75.7239 110° East 479 551 29,500 -2,160 Descending New York Center
06:18AM 41.2292 -75.5600 113° Southeast 479 551 26,900 -2,640 Descending New York Center
06:19AM 41.1789 -75.4106 114° Southeast 459 528 24,300 -1,980 Descending New York Center
06:20AM 41.1283 -75.2611 114° Southeast 449 517 23,000 -660 Descending New York Center
06:21AM 41.0778 -75.1117 114° Southeast 444 511 23,000  Level New York Center
06:22AM 41.0231 -74.9486 114° Southeast 444 511 23,000 -60 Level New York Center
06:23AM 40.9892 -74.7900 106° East 444 511 22,900  Descending New York Center
06:24AM 40.9694 -74.6267 99° East 444 511 23,000 -600 Climbing New York Center
06:25AM 40.9517 -74.4636 98° East 444 511 21,700 -1,800 Descending New York Center
06:25AM 40.9333 -74.3667 104° East 437 503 20,200 -1,740 Descending New York TRACON
06:26AM 40.9167 -74.2167 98° East 402 463 19,000 -900 Descending New York TRACON
06:27AM 40.8667 -74.1000 120° Southeast 422 486 18,500 -1,200 Descending New York TRACON
06:28AM 40.8167 -73.9500 114° Southeast 411 473 16,800 -2,040 Descending New York TRACON
06:29AM 40.7833 -73.8333 111° Southeast 397 457 14,700 -2,160 Descending New York TRACON
06:30AM 40.7333 -73.7167 119° Southeast 404 465 12,700 -1,620 Descending New York TRACON
06:31AM 40.6500 -73.6833 163° South 370 426 11,700 -1,380 Descending New York TRACON
06:32AM 40.5667 -73.6667 171° South 291 335 10,100 -1,800 Descending New York TRACON
06:33AM 40.5000 -73.6333 159° South 275 316 8,500 -2,400 Descending New York TRACON
06:34AM 40.4333 -73.6500 191° South 268 308 5,600 -2,280 Descending New York TRACON
06:35AM 40.3833 -73.7167 225° Southwest 244 281 4,000 -1,380 Descending New York TRACON
06:36AM 40.3500 -73.7667 229° Southwest 219 252 3,000 -960 Descending New York TRACON
06:37AM 40.3833 -73.8333 303° West 241 277 2,100 -780 Descending New York TRACON
06:38AM 40.4333 -73.8667 333° Northwest 239 275 1,500 -360 Descending New York TRACON
06:39AM 40.4833 -73.8833 346° North 212 244 1,500  Level New York TRACON
06:40AM 40.5333 -73.8500 27° Northeast 188 216 1,500  Level New York TRACON